sensor_id;sensor_type;location;lat;lon;timestamp;temperature;humidity
31967;DHT22;18496;52.042;6.812;2023-04-08T00:01:36;8.30;99.90
31967;DHT22;18496;52.042;6.812;2023-04-08T00:03:40;8.30;99.90
31967;DHT22;18496;52.042;6.812;2023-04-08T00:05:44;8.30;99.90
31967;DHT22;18496;52.042;6.812;2023-04-08T00:07:47;8.30;99.90
31967;DHT22;18496;52.042;6.812;2023-04-08T00:09:51;8.30;99.90
31967;DHT22;18496;52.042;6.812;2023-04-08T00:11:55;8.30;99.90
31967;DHT22;18496;52.042;6.812;2023-04-08T00:13:59;8.20;99.90
31967;DHT22;18496;52.042;6.812;2023-04-08T00:16:03;8.20;99.90
31967;DHT22;18496;52.042;6.812;2023-04-08T00:18:07;8.20;99.90
31967;DHT22;18496;52.042;6.812;2023-04-08T00:20:11;8.30;99.90
31967;DHT22;18496;52.042;6.812;2023-04-08T00:22:15;8.20;99.90
31967;DHT22;18496;52.042;6.812;2023-04-08T00:24:20;8.20;99.90
31967;DHT22;18496;52.042;6.812;2023-04-08T00:26:23;8.10;99.90
31967;DHT22;18496;52.042;6.812;2023-04-08T00:28:27;8.10;99.90
31967;DHT22;18496;52.042;6.812;2023-04-08T00:30:31;8.10;99.90
31967;DHT22;18496;52.042;6.812;2023-04-08T00:32:35;8.00;99.90
31967;DHT22;18496;52.042;6.812;2023-04-08T00:34:39;8.00;99.90
31967;DHT22;18496;52.042;6.812;2023-04-08T00:36:43;8.00;99.90
31967;DHT22;18496;52.042;6.812;2023-04-08T00:38:47;8.00;99.90
31967;DHT22;18496;52.042;6.812;2023-04-08T00:40:51;8.00;99.90
31967;DHT22;18496;52.042;6.812;2023-04-08T00:42:56;8.00;99.90
31967;DHT22;18496;52.042;6.812;2023-04-08T00:45:00;8.10;99.90
31967;DHT22;18496;52.042;6.812;2023-04-08T00:47:04;8.10;99.90
31967;DHT22;18496;52.042;6.812;2023-04-08T00:49:07;8.20;99.90
31967;DHT22;18496;52.042;6.812;2023-04-08T00:51:12;8.20;99.90
31967;DHT22;18496;52.042;6.812;2023-04-08T00:53:17;8.30;99.90
31967;DHT22;18496;52.042;6.812;2023-04-08T00:55:21;8.30;99.90
31967;DHT22;18496;52.042;6.812;2023-04-08T00:57:25;8.30;99.90
31967;DHT22;18496;52.042;6.812;2023-04-08T00:59:29;8.30;99.90
31967;DHT22;18496;52.042;6.812;2023-04-08T01:01:53;8.30;99.90
31967;DHT22;18496;52.042;6.812;2023-04-08T01:06:24;8.30;99.90
31967;DHT22;18496;52.042;6.812;2023-04-08T01:08:30;8.30;99.90
31967;DHT22;18496;52.042;6.812;2023-04-08T01:10:36;8.30;99.90
31967;DHT22;18496;52.042;6.812;2023-04-08T01:12:46;8.30;99.90
31967;DHT22;18496;52.042;6.812;2023-04-08T01:14:53;8.20;99.90
31967;DHT22;18496;52.042;6.812;2023-04-08T01:16:59;8.20;99.90
31967;DHT22;18496;52.042;6.812;2023-04-08T01:19:05;8.20;99.90
31967;DHT22;18496;52.042;6.812;2023-04-08T01:21:11;8.10;99.90
31967;DHT22;18496;52.042;6.812;2023-04-08T01:25:54;8.20;99.90
31967;DHT22;18496;52.042;6.812;2023-04-08T01:28:00;8.10;99.90
31967;DHT22;18496;52.042;6.812;2023-04-08T01:30:05;8.10;99.90
31967;DHT22;18496;52.042;6.812;2023-04-08T01:32:11;8.00;99.90
31967;DHT22;18496;52.042;6.812;2023-04-08T01:34:18;8.00;99.90
31967;DHT22;18496;52.042;6.812;2023-04-08T01:36:23;8.00;99.90
31967;DHT22;18496;52.042;6.812;2023-04-08T01:38:30;8.00;99.90
31967;DHT22;18496;52.042;6.812;2023-04-08T01:40:37;8.00;99.90
31967;DHT22;18496;52.042;6.812;2023-04-08T01:42:41;7.90;99.90
31967;DHT22;18496;52.042;6.812;2023-04-08T01:44:50;8.00;99.90
31967;DHT22;18496;52.042;6.812;2023-04-08T01:46:55;7.90;99.90
31967;DHT22;18496;52.042;6.812;2023-04-08T01:49:00;7.90;99.90
31967;DHT22;18496;52.042;6.812;2023-04-08T01:51:04;7.80;99.90
31967;DHT22;18496;52.042;6.812;2023-04-08T01:53:09;7.70;99.90
31967;DHT22;18496;52.042;6.812;2023-04-08T01:55:14;7.70;99.90
31967;DHT22;18496;52.042;6.812;2023-04-08T01:57:27;7.70;99.90
31967;DHT22;18496;52.042;6.812;2023-04-08T01:59:35;7.70;99.90
31967;DHT22;18496;52.042;6.812;2023-04-08T02:01:42;7.70;99.90
31967;DHT22;18496;52.042;6.812;2023-04-08T02:03:47;7.70;99.90
31967;DHT22;18496;52.042;6.812;2023-04-08T02:05:51;7.60;99.90
31967;DHT22;18496;52.042;6.812;2023-04-08T02:07:55;7.70;99.90
31967;DHT22;18496;52.042;6.812;2023-04-08T02:09:58;7.70;99.90
31967;DHT22;18496;52.042;6.812;2023-04-08T02:12:02;7.70;99.90
31967;DHT22;18496;52.042;6.812;2023-04-08T02:14:06;7.60;99.90
31967;DHT22;18496;52.042;6.812;2023-04-08T02:16:22;7.60;99.90
31967;DHT22;18496;52.042;6.812;2023-04-08T02:18:26;7.60;99.90
31967;DHT22;18496;52.042;6.812;2023-04-08T02:20:37;7.50;99.90
31967;DHT22;18496;52.042;6.812;2023-04-08T02:22:48;7.50;99.90
31967;DHT22;18496;52.042;6.812;2023-04-08T02:24:54;7.50;99.90
31967;DHT22;18496;52.042;6.812;2023-04-08T02:26:59;7.50;99.90
31967;DHT22;18496;52.042;6.812;2023-04-08T02:29:04;7.50;99.90
31967;DHT22;18496;52.042;6.812;2023-04-08T02:31:11;7.50;99.90
31967;DHT22;18496;52.042;6.812;2023-04-08T02:33:22;7.50;99.90
31967;DHT22;18496;52.042;6.812;2023-04-08T02:35:28;7.50;99.90
31967;DHT22;18496;52.042;6.812;2023-04-08T02:37:33;7.40;99.90
31967;DHT22;18496;52.042;6.812;2023-04-08T02:39:36;7.40;99.90
31967;DHT22;18496;52.042;6.812;2023-04-08T02:41:40;7.40;99.90
31967;DHT22;18496;52.042;6.812;2023-04-08T02:43:44;7.40;99.90
31967;DHT22;18496;52.042;6.812;2023-04-08T02:45:50;7.30;99.90
31967;DHT22;18496;52.042;6.812;2023-04-08T02:47:54;7.30;99.90
31967;DHT22;18496;52.042;6.812;2023-04-08T02:49:57;7.30;99.90
31967;DHT22;18496;52.042;6.812;2023-04-08T02:52:01;7.30;99.90
31967;DHT22;18496;52.042;6.812;2023-04-08T02:54:05;7.30;99.90
31967;DHT22;18496;52.042;6.812;2023-04-08T02:56:10;7.20;99.90
31967;DHT22;18496;52.042;6.812;2023-04-08T02:58:14;7.30;99.90
31967;DHT22;18496;52.042;6.812;2023-04-08T03:00:18;7.20;99.90
31967;DHT22;18496;52.042;6.812;2023-04-08T03:02:22;7.10;99.90
31967;DHT22;18496;52.042;6.812;2023-04-08T03:04:25;7.20;99.90
31967;DHT22;18496;52.042;6.812;2023-04-08T03:06:29;7.20;99.90
31967;DHT22;18496;52.042;6.812;2023-04-08T03:08:34;7.10;99.90
31967;DHT22;18496;52.042;6.812;2023-04-08T03:10:37;7.10;99.90
31967;DHT22;18496;52.042;6.812;2023-04-08T03:12:41;7.10;99.90
31967;DHT22;18496;52.042;6.812;2023-04-08T03:14:45;7.00;99.90
31967;DHT22;18496;52.042;6.812;2023-04-08T03:16:48;7.00;99.90
31967;DHT22;18496;52.042;6.812;2023-04-08T03:18:52;7.10;99.90
31967;DHT22;18496;52.042;6.812;2023-04-08T03:20:56;7.10;99.90
31967;DHT22;18496;52.042;6.812;2023-04-08T03:23:00;7.10;99.90
31967;DHT22;18496;52.042;6.812;2023-04-08T03:25:04;7.00;99.90
31967;DHT22;18496;52.042;6.812;2023-04-08T03:27:07;7.00;99.90
31967;DHT22;18496;52.042;6.812;2023-04-08T03:29:11;7.00;99.90
31967;DHT22;18496;52.042;6.812;2023-04-08T03:31:15;7.00;99.90
31967;DHT22;18496;52.042;6.812;2023-04-08T03:33:18;6.90;99.90
31967;DHT22;18496;52.042;6.812;2023-04-08T03:35:22;6.90;99.90
31967;DHT22;18496;52.042;6.812;2023-04-08T03:37:26;6.90;99.90
31967;DHT22;18496;52.042;6.812;2023-04-08T03:39:30;6.80;99.90
31967;DHT22;18496;52.042;6.812;2023-04-08T03:41:34;6.80;99.90
31967;DHT22;18496;52.042;6.812;2023-04-08T03:43:37;6.70;99.90
31967;DHT22;18496;52.042;6.812;2023-04-08T03:45:41;6.70;99.90
31967;DHT22;18496;52.042;6.812;2023-04-08T03:47:45;6.80;99.90
31967;DHT22;18496;52.042;6.812;2023-04-08T03:49:48;6.70;99.90
31967;DHT22;18496;52.042;6.812;2023-04-08T03:51:52;6.70;99.90
31967;DHT22;18496;52.042;6.812;2023-04-08T03:53:55;6.70;99.90
31967;DHT22;18496;52.042;6.812;2023-04-08T03:55:59;6.70;99.90
31967;DHT22;18496;52.042;6.812;2023-04-08T03:58:05;6.70;99.90
31967;DHT22;18496;52.042;6.812;2023-04-08T04:00:09;6.70;99.90
31967;DHT22;18496;52.042;6.812;2023-04-08T04:02:21;6.60;99.90
31967;DHT22;18496;52.042;6.812;2023-04-08T04:04:27;6.60;99.90
31967;DHT22;18496;52.042;6.812;2023-04-08T04:06:31;6.60;99.90
31967;DHT22;18496;52.042;6.812;2023-04-08T04:08:35;6.50;99.90
31967;DHT22;18496;52.042;6.812;2023-04-08T04:10:42;6.50;99.90
31967;DHT22;18496;52.042;6.812;2023-04-08T04:12:46;6.50;99.90
31967;DHT22;18496;52.042;6.812;2023-04-08T04:14:50;6.40;99.90
31967;DHT22;18496;52.042;6.812;2023-04-08T04:16:57;6.40;99.90
31967;DHT22;18496;52.042;6.812;2023-04-08T04:19:00;6.40;99.90
31967;DHT22;18496;52.042;6.812;2023-04-08T04:21:05;6.40;99.90
31967;DHT22;18496;52.042;6.812;2023-04-08T04:23:09;6.30;99.90
31967;DHT22;18496;52.042;6.812;2023-04-08T04:25:13;6.30;99.90
31967;DHT22;18496;52.042;6.812;2023-04-08T04:27:16;6.30;99.90
31967;DHT22;18496;52.042;6.812;2023-04-08T04:29:20;6.30;99.90
31967;DHT22;18496;52.042;6.812;2023-04-08T04:31:24;6.30;99.90
31967;DHT22;18496;52.042;6.812;2023-04-08T04:33:29;6.30;99.90
31967;DHT22;18496;52.042;6.812;2023-04-08T04:35:35;6.30;99.90
31967;DHT22;18496;52.042;6.812;2023-04-08T04:37:39;6.30;99.90
31967;DHT22;18496;52.042;6.812;2023-04-08T04:39:46;6.30;99.90
31967;DHT22;18496;52.042;6.812;2023-04-08T04:41:50;6.30;99.90
31967;DHT22;18496;52.042;6.812;2023-04-08T04:43:54;6.30;99.90
31967;DHT22;18496;52.042;6.812;2023-04-08T04:45:58;6.30;99.90
31967;DHT22;18496;52.042;6.812;2023-04-08T04:48:04;6.30;99.90
31967;DHT22;18496;52.042;6.812;2023-04-08T04:50:08;6.30;99.90
31967;DHT22;18496;52.042;6.812;2023-04-08T04:52:15;6.20;99.90
31967;DHT22;18496;52.042;6.812;2023-04-08T04:54:18;6.20;99.90
31967;DHT22;18496;52.042;6.812;2023-04-08T04:56:22;6.20;99.90
31967;DHT22;18496;52.042;6.812;2023-04-08T04:58:27;6.10;99.90
31967;DHT22;18496;52.042;6.812;2023-04-08T05:00:33;6.10;99.90
31967;DHT22;18496;52.042;6.812;2023-04-08T05:02:37;6.10;99.90
31967;DHT22;18496;52.042;6.812;2023-04-08T05:04:41;6.20;99.90
31967;DHT22;18496;52.042;6.812;2023-04-08T05:06:44;6.20;99.90
31967;DHT22;18496;52.042;6.812;2023-04-08T05:08:48;6.20;99.90
31967;DHT22;18496;52.042;6.812;2023-04-08T05:10:53;6.20;99.90
31967;DHT22;18496;52.042;6.812;2023-04-08T05:12:58;6.20;99.90
31967;DHT22;18496;52.042;6.812;2023-04-08T05:15:02;6.30;99.90
31967;DHT22;18496;52.042;6.812;2023-04-08T05:17:05;6.30;99.90
31967;DHT22;18496;52.042;6.812;2023-04-08T05:19:09;6.30;99.90
31967;DHT22;18496;52.042;6.812;2023-04-08T05:21:13;6.30;99.90
31967;DHT22;18496;52.042;6.812;2023-04-08T05:23:17;6.30;99.90
31967;DHT22;18496;52.042;6.812;2023-04-08T05:25:20;6.30;99.90
31967;DHT22;18496;52.042;6.812;2023-04-08T05:27:24;6.40;99.90
31967;DHT22;18496;52.042;6.812;2023-04-08T05:29:28;6.40;99.90
31967;DHT22;18496;52.042;6.812;2023-04-08T05:31:31;6.40;99.90
31967;DHT22;18496;52.042;6.812;2023-04-08T05:33:35;6.50;99.90
31967;DHT22;18496;52.042;6.812;2023-04-08T05:35:38;6.50;99.90
31967;DHT22;18496;52.042;6.812;2023-04-08T05:37:42;6.50;99.90
31967;DHT22;18496;52.042;6.812;2023-04-08T05:39:46;6.50;99.90
31967;DHT22;18496;52.042;6.812;2023-04-08T05:41:49;6.50;99.90
31967;DHT22;18496;52.042;6.812;2023-04-08T05:43:53;6.50;99.90
31967;DHT22;18496;52.042;6.812;2023-04-08T05:45:57;6.50;99.90
31967;DHT22;18496;52.042;6.812;2023-04-08T05:48:00;6.50;99.90
31967;DHT22;18496;52.042;6.812;2023-04-08T05:50:04;6.50;99.90
31967;DHT22;18496;52.042;6.812;2023-04-08T05:52:08;6.60;99.90
31967;DHT22;18496;52.042;6.812;2023-04-08T05:54:12;6.60;99.90
31967;DHT22;18496;52.042;6.812;2023-04-08T05:56:16;6.60;99.90
31967;DHT22;18496;52.042;6.812;2023-04-08T05:58:19;6.60;99.90
31967;DHT22;18496;52.042;6.812;2023-04-08T06:00:23;6.60;99.90
31967;DHT22;18496;52.042;6.812;2023-04-08T06:02:27;6.70;99.90
31967;DHT22;18496;52.042;6.812;2023-04-08T06:04:30;6.70;99.90
31967;DHT22;18496;52.042;6.812;2023-04-08T06:06:36;6.80;99.90
31967;DHT22;18496;52.042;6.812;2023-04-08T06:08:41;6.80;99.90
31967;DHT22;18496;52.042;6.812;2023-04-08T06:10:49;6.90;99.90
31967;DHT22;18496;52.042;6.812;2023-04-08T06:12:53;7.00;99.90
31967;DHT22;18496;52.042;6.812;2023-04-08T06:14:56;7.00;99.90
31967;DHT22;18496;52.042;6.812;2023-04-08T06:17:00;7.00;99.90
31967;DHT22;18496;52.042;6.812;2023-04-08T06:19:04;7.10;99.90
31967;DHT22;18496;52.042;6.812;2023-04-08T06:21:07;7.20;99.90
31967;DHT22;18496;52.042;6.812;2023-04-08T06:23:11;7.20;99.90
31967;DHT22;18496;52.042;6.812;2023-04-08T06:25:15;7.30;99.90
31967;DHT22;18496;52.042;6.812;2023-04-08T06:27:19;7.40;99.90
31967;DHT22;18496;52.042;6.812;2023-04-08T06:29:23;7.40;99.90
31967;DHT22;18496;52.042;6.812;2023-04-08T06:31:27;7.40;99.90
31967;DHT22;18496;52.042;6.812;2023-04-08T06:33:30;7.40;99.90
31967;DHT22;18496;52.042;6.812;2023-04-08T06:35:34;7.40;99.90
31967;DHT22;18496;52.042;6.812;2023-04-08T06:37:39;7.50;99.90
31967;DHT22;18496;52.042;6.812;2023-04-08T06:39:43;7.50;99.90
31967;DHT22;18496;52.042;6.812;2023-04-08T06:41:47;7.50;99.90
31967;DHT22;18496;52.042;6.812;2023-04-08T06:44:10;7.50;99.90
31967;DHT22;18496;52.042;6.812;2023-04-08T06:46:13;7.50;99.90
31967;DHT22;18496;52.042;6.812;2023-04-08T06:48:17;7.60;99.90
31967;DHT22;18496;52.042;6.812;2023-04-08T06:50:21;7.60;99.90
31967;DHT22;18496;52.042;6.812;2023-04-08T06:52:24;7.60;99.90
31967;DHT22;18496;52.042;6.812;2023-04-08T06:54:28;7.70;99.90
31967;DHT22;18496;52.042;6.812;2023-04-08T06:56:34;7.70;99.90
31967;DHT22;18496;52.042;6.812;2023-04-08T06:58:38;7.70;99.90
31967;DHT22;18496;52.042;6.812;2023-04-08T07:00:41;7.80;99.90
31967;DHT22;18496;52.042;6.812;2023-04-08T07:02:45;7.80;99.90
31967;DHT22;18496;52.042;6.812;2023-04-08T07:04:49;7.90;99.90
31967;DHT22;18496;52.042;6.812;2023-04-08T07:06:52;7.90;99.90
31967;DHT22;18496;52.042;6.812;2023-04-08T07:08:56;7.90;99.90
31967;DHT22;18496;52.042;6.812;2023-04-08T07:10:59;8.00;99.90
31967;DHT22;18496;52.042;6.812;2023-04-08T07:13:03;8.00;99.90
31967;DHT22;18496;52.042;6.812;2023-04-08T07:15:07;8.10;99.90
31967;DHT22;18496;52.042;6.812;2023-04-08T07:17:11;8.10;99.90
31967;DHT22;18496;52.042;6.812;2023-04-08T07:19:15;8.20;99.90
31967;DHT22;18496;52.042;6.812;2023-04-08T07:21:18;8.30;99.90
31967;DHT22;18496;52.042;6.812;2023-04-08T07:23:22;8.30;99.90
31967;DHT22;18496;52.042;6.812;2023-04-08T07:25:26;8.30;99.90
31967;DHT22;18496;52.042;6.812;2023-04-08T07:27:29;8.40;99.90
31967;DHT22;18496;52.042;6.812;2023-04-08T07:29:33;8.50;99.90
31967;DHT22;18496;52.042;6.812;2023-04-08T07:31:37;8.50;99.90
31967;DHT22;18496;52.042;6.812;2023-04-08T07:33:41;8.50;99.90
31967;DHT22;18496;52.042;6.812;2023-04-08T07:35:44;8.60;99.90
31967;DHT22;18496;52.042;6.812;2023-04-08T07:37:51;8.60;99.90
31967;DHT22;18496;52.042;6.812;2023-04-08T07:39:55;8.70;99.90
31967;DHT22;18496;52.042;6.812;2023-04-08T07:41:59;8.70;99.90
31967;DHT22;18496;52.042;6.812;2023-04-08T07:44:03;8.70;99.90
31967;DHT22;18496;52.042;6.812;2023-04-08T07:46:07;8.80;99.90
31967;DHT22;18496;52.042;6.812;2023-04-08T07:48:11;8.80;99.90
31967;DHT22;18496;52.042;6.812;2023-04-08T07:50:15;8.90;99.90
31967;DHT22;18496;52.042;6.812;2023-04-08T07:52:19;8.90;99.90
31967;DHT22;18496;52.042;6.812;2023-04-08T07:54:23;8.90;99.90
31967;DHT22;18496;52.042;6.812;2023-04-08T07:56:26;9.00;99.90
31967;DHT22;18496;52.042;6.812;2023-04-08T07:58:30;9.00;99.90
31967;DHT22;18496;52.042;6.812;2023-04-08T08:00:34;9.00;99.90
31967;DHT22;18496;52.042;6.812;2023-04-08T08:02:38;9.00;99.90
31967;DHT22;18496;52.042;6.812;2023-04-08T08:04:42;9.10;99.90
31967;DHT22;18496;52.042;6.812;2023-04-08T08:06:46;9.10;99.90
31967;DHT22;18496;52.042;6.812;2023-04-08T08:08:50;9.10;99.90
31967;DHT22;18496;52.042;6.812;2023-04-08T08:10:53;9.10;99.90
31967;DHT22;18496;52.042;6.812;2023-04-08T08:12:57;9.20;99.90
31967;DHT22;18496;52.042;6.812;2023-04-08T08:15:01;9.20;99.90
31967;DHT22;18496;52.042;6.812;2023-04-08T08:17:05;9.30;99.90
31967;DHT22;18496;52.042;6.812;2023-04-08T08:19:09;9.40;99.90
31967;DHT22;18496;52.042;6.812;2023-04-08T08:21:12;9.40;99.90
31967;DHT22;18496;52.042;6.812;2023-04-08T08:23:16;9.40;99.90
31967;DHT22;18496;52.042;6.812;2023-04-08T08:25:20;9.50;99.90
31967;DHT22;18496;52.042;6.812;2023-04-08T08:27:24;9.60;99.90
31967;DHT22;18496;52.042;6.812;2023-04-08T08:29:28;9.60;99.90
31967;DHT22;18496;52.042;6.812;2023-04-08T08:31:31;9.60;99.90
31967;DHT22;18496;52.042;6.812;2023-04-08T08:33:35;9.60;99.90
31967;DHT22;18496;52.042;6.812;2023-04-08T08:35:39;9.70;99.90
31967;DHT22;18496;52.042;6.812;2023-04-08T08:37:43;9.70;99.90
31967;DHT22;18496;52.042;6.812;2023-04-08T08:39:46;9.70;99.90
31967;DHT22;18496;52.042;6.812;2023-04-08T08:41:50;9.70;99.90
31967;DHT22;18496;52.042;6.812;2023-04-08T08:43:54;9.70;99.90
31967;DHT22;18496;52.042;6.812;2023-04-08T08:45:58;9.80;99.90
31967;DHT22;18496;52.042;6.812;2023-04-08T08:48:02;9.80;99.90
31967;DHT22;18496;52.042;6.812;2023-04-08T08:50:06;9.80;99.90
31967;DHT22;18496;52.042;6.812;2023-04-08T08:52:09;9.80;99.90
31967;DHT22;18496;52.042;6.812;2023-04-08T08:54:14;9.90;99.90
31967;DHT22;18496;52.042;6.812;2023-04-08T08:56:18;9.90;99.90
31967;DHT22;18496;52.042;6.812;2023-04-08T08:58:25;9.90;99.90
31967;DHT22;18496;52.042;6.812;2023-04-08T09:00:33;10.00;99.90
31967;DHT22;18496;52.042;6.812;2023-04-08T09:02:36;10.00;99.90
31967;DHT22;18496;52.042;6.812;2023-04-08T09:04:58;10.00;99.90
31967;DHT22;18496;52.042;6.812;2023-04-08T09:07:12;10.10;99.90
31967;DHT22;18496;52.042;6.812;2023-04-08T09:09:16;10.10;99.90
31967;DHT22;18496;52.042;6.812;2023-04-08T09:11:20;10.10;99.90
31967;DHT22;18496;52.042;6.812;2023-04-08T09:13:24;10.20;99.90
31967;DHT22;18496;52.042;6.812;2023-04-08T09:16:03;10.10;99.90
31967;DHT22;18496;52.042;6.812;2023-04-08T09:18:20;10.20;99.90
31967;DHT22;18496;52.042;6.812;2023-04-08T09:20:25;10.20;99.90
31967;DHT22;18496;52.042;6.812;2023-04-08T09:22:29;10.20;99.90
31967;DHT22;18496;52.042;6.812;2023-04-08T09:24:34;10.30;99.90
31967;DHT22;18496;52.042;6.812;2023-04-08T09:26:45;10.30;99.90
31967;DHT22;18496;52.042;6.812;2023-04-08T09:31:23;10.40;99.90
31967;DHT22;18496;52.042;6.812;2023-04-08T09:33:30;10.40;99.90
31967;DHT22;18496;52.042;6.812;2023-04-08T09:35:36;10.40;99.90
31967;DHT22;18496;52.042;6.812;2023-04-08T09:37:41;10.50;99.90
31967;DHT22;18496;52.042;6.812;2023-04-08T09:39:44;10.50;99.90
31967;DHT22;18496;52.042;6.812;2023-04-08T09:41:50;10.50;99.90
31967;DHT22;18496;52.042;6.812;2023-04-08T09:43:55;10.50;99.90
31967;DHT22;18496;52.042;6.812;2023-04-08T09:46:01;10.60;99.90
31967;DHT22;18496;52.042;6.812;2023-04-08T09:48:11;10.60;99.90
31967;DHT22;18496;52.042;6.812;2023-04-08T09:50:18;10.50;99.90
31967;DHT22;18496;52.042;6.812;2023-04-08T09:52:32;10.50;99.90
31967;DHT22;18496;52.042;6.812;2023-04-08T09:55:07;10.70;99.90
31967;DHT22;18496;52.042;6.812;2023-04-08T09:57:36;10.70;99.90
31967;DHT22;18496;52.042;6.812;2023-04-08T09:59:59;10.80;99.90
31967;DHT22;18496;52.042;6.812;2023-04-08T10:02:06;10.90;99.90
31967;DHT22;18496;52.042;6.812;2023-04-08T10:06:28;11.00;99.90
31967;DHT22;18496;52.042;6.812;2023-04-08T10:08:34;11.00;99.90
31967;DHT22;18496;52.042;6.812;2023-04-08T10:10:39;11.00;99.90
31967;DHT22;18496;52.042;6.812;2023-04-08T10:12:46;11.10;99.90
31967;DHT22;18496;52.042;6.812;2023-04-08T10:15:26;11.10;99.90
31967;DHT22;18496;52.042;6.812;2023-04-08T10:17:29;11.20;99.90
31967;DHT22;18496;52.042;6.812;2023-04-08T10:19:39;11.20;99.90
31967;DHT22;18496;52.042;6.812;2023-04-08T10:21:45;11.20;99.90
31967;DHT22;18496;52.042;6.812;2023-04-08T10:23:54;11.30;99.90
31967;DHT22;18496;52.042;6.812;2023-04-08T10:25:58;11.40;99.90
31967;DHT22;18496;52.042;6.812;2023-04-08T10:32:39;11.50;99.90
31967;DHT22;18496;52.042;6.812;2023-04-08T10:34:51;11.50;99.90
31967;DHT22;18496;52.042;6.812;2023-04-08T10:36:56;11.60;99.90
31967;DHT22;18496;52.042;6.812;2023-04-08T10:39:01;11.50;99.90
31967;DHT22;18496;52.042;6.812;2023-04-08T10:41:05;11.60;99.90
31967;DHT22;18496;52.042;6.812;2023-04-08T10:43:10;11.60;99.90
31967;DHT22;18496;52.042;6.812;2023-04-08T10:45:17;11.70;99.90
31967;DHT22;18496;52.042;6.812;2023-04-08T10:47:24;11.80;99.90
31967;DHT22;18496;52.042;6.812;2023-04-08T10:49:32;11.90;99.90
31967;DHT22;18496;52.042;6.812;2023-04-08T10:51:38;12.00;99.90
31967;DHT22;18496;52.042;6.812;2023-04-08T10:53:42;12.00;99.90
31967;DHT22;18496;52.042;6.812;2023-04-08T10:55:45;12.10;99.90
31967;DHT22;18496;52.042;6.812;2023-04-08T10:57:50;12.10;99.90
31967;DHT22;18496;52.042;6.812;2023-04-08T10:59:53;12.20;99.90
31967;DHT22;18496;52.042;6.812;2023-04-08T11:01:57;12.40;99.90
31967;DHT22;18496;52.042;6.812;2023-04-08T11:04:15;12.50;99.90
31967;DHT22;18496;52.042;6.812;2023-04-08T11:06:19;12.50;99.90
31967;DHT22;18496;52.042;6.812;2023-04-08T11:08:27;12.50;99.90
31967;DHT22;18496;52.042;6.812;2023-04-08T11:10:36;12.60;99.90
31967;DHT22;18496;52.042;6.812;2023-04-08T11:12:42;12.70;99.90
31967;DHT22;18496;52.042;6.812;2023-04-08T11:14:45;12.70;99.90
31967;DHT22;18496;52.042;6.812;2023-04-08T11:16:50;12.80;99.90
31967;DHT22;18496;52.042;6.812;2023-04-08T11:18:54;12.80;99.90
31967;DHT22;18496;52.042;6.812;2023-04-08T11:20:59;12.90;99.90
31967;DHT22;18496;52.042;6.812;2023-04-08T11:23:04;12.90;99.90
31967;DHT22;18496;52.042;6.812;2023-04-08T11:25:07;13.00;99.90
31967;DHT22;18496;52.042;6.812;2023-04-08T11:27:12;13.00;99.90
31967;DHT22;18496;52.042;6.812;2023-04-08T11:29:18;13.00;99.90
31967;DHT22;18496;52.042;6.812;2023-04-08T11:31:23;13.10;99.90
31967;DHT22;18496;52.042;6.812;2023-04-08T11:33:30;13.10;99.90
31967;DHT22;18496;52.042;6.812;2023-04-08T11:35:38;13.20;99.90
31967;DHT22;18496;52.042;6.812;2023-04-08T11:37:42;13.20;99.90
31967;DHT22;18496;52.042;6.812;2023-04-08T11:39:47;13.20;99.90
31967;DHT22;18496;52.042;6.812;2023-04-08T11:41:50;13.20;99.90
31967;DHT22;18496;52.042;6.812;2023-04-08T11:43:55;13.30;99.90
31967;DHT22;18496;52.042;6.812;2023-04-08T11:45:59;13.30;99.90
31967;DHT22;18496;52.042;6.812;2023-04-08T11:48:10;13.40;99.90
31967;DHT22;18496;52.042;6.812;2023-04-08T11:50:25;13.40;99.90
31967;DHT22;18496;52.042;6.812;2023-04-08T11:52:48;13.40;99.90
31967;DHT22;18496;52.042;6.812;2023-04-08T11:54:54;13.40;99.90
31967;DHT22;18496;52.042;6.812;2023-04-08T11:56:58;13.40;99.90
31967;DHT22;18496;52.042;6.812;2023-04-08T11:59:02;13.40;99.90
31967;DHT22;18496;52.042;6.812;2023-04-08T12:01:06;13.50;99.90
31967;DHT22;18496;52.042;6.812;2023-04-08T12:03:10;13.50;99.90
31967;DHT22;18496;52.042;6.812;2023-04-08T12:05:14;13.50;99.90
31967;DHT22;18496;52.042;6.812;2023-04-08T12:07:18;13.50;99.90
31967;DHT22;18496;52.042;6.812;2023-04-08T12:09:22;13.50;99.90
31967;DHT22;18496;52.042;6.812;2023-04-08T12:11:25;13.50;99.90
31967;DHT22;18496;52.042;6.812;2023-04-08T12:13:29;13.50;99.90
31967;DHT22;18496;52.042;6.812;2023-04-08T12:15:33;13.50;99.90
31967;DHT22;18496;52.042;6.812;2023-04-08T12:17:37;13.50;99.90
31967;DHT22;18496;52.042;6.812;2023-04-08T12:19:43;13.60;99.90
31967;DHT22;18496;52.042;6.812;2023-04-08T12:21:47;13.60;99.90
31967;DHT22;18496;52.042;6.812;2023-04-08T12:23:51;13.70;99.90
31967;DHT22;18496;52.042;6.812;2023-04-08T12:25:55;13.70;99.90
31967;DHT22;18496;52.042;6.812;2023-04-08T12:27:59;13.70;99.90
31967;DHT22;18496;52.042;6.812;2023-04-08T12:30:03;13.80;99.90
31967;DHT22;18496;52.042;6.812;2023-04-08T12:32:06;13.80;99.90
31967;DHT22;18496;52.042;6.812;2023-04-08T12:34:10;13.80;99.90
31967;DHT22;18496;52.042;6.812;2023-04-08T12:36:14;13.70;99.90
31967;DHT22;18496;52.042;6.812;2023-04-08T12:38:18;13.70;99.90
31967;DHT22;18496;52.042;6.812;2023-04-08T12:40:21;13.80;99.90
31967;DHT22;18496;52.042;6.812;2023-04-08T12:42:25;13.80;99.90
31967;DHT22;18496;52.042;6.812;2023-04-08T12:44:30;13.80;99.90
31967;DHT22;18496;52.042;6.812;2023-04-08T12:46:34;13.90;99.90
31967;DHT22;18496;52.042;6.812;2023-04-08T12:48:37;13.90;99.90
31967;DHT22;18496;52.042;6.812;2023-04-08T12:50:41;13.90;99.90
31967;DHT22;18496;52.042;6.812;2023-04-08T12:52:44;13.90;99.90
31967;DHT22;18496;52.042;6.812;2023-04-08T12:54:48;13.90;99.90
31967;DHT22;18496;52.042;6.812;2023-04-08T12:56:52;13.90;99.90
31967;DHT22;18496;52.042;6.812;2023-04-08T12:58:56;13.90;99.90
31967;DHT22;18496;52.042;6.812;2023-04-08T13:01:00;14.00;99.90
31967;DHT22;18496;52.042;6.812;2023-04-08T13:03:03;14.10;99.90
31967;DHT22;18496;52.042;6.812;2023-04-08T13:05:09;14.10;99.90
31967;DHT22;18496;52.042;6.812;2023-04-08T13:07:13;14.10;99.90
31967;DHT22;18496;52.042;6.812;2023-04-08T13:09:16;14.10;99.90
31967;DHT22;18496;52.042;6.812;2023-04-08T13:11:20;14.10;99.90
31967;DHT22;18496;52.042;6.812;2023-04-08T13:13:24;14.00;99.90
31967;DHT22;18496;52.042;6.812;2023-04-08T13:15:29;14.00;99.90
31967;DHT22;18496;52.042;6.812;2023-04-08T13:17:32;14.00;99.90
31967;DHT22;18496;52.042;6.812;2023-04-08T13:19:36;14.00;99.90
31967;DHT22;18496;52.042;6.812;2023-04-08T13:21:40;14.10;99.90
31967;DHT22;18496;52.042;6.812;2023-04-08T13:23:43;14.10;99.90
31967;DHT22;18496;52.042;6.812;2023-04-08T13:25:49;14.10;99.90
31967;DHT22;18496;52.042;6.812;2023-04-08T13:27:53;14.10;99.90
31967;DHT22;18496;52.042;6.812;2023-04-08T13:29:56;14.20;99.90
31967;DHT22;18496;52.042;6.812;2023-04-08T13:32:00;14.20;99.90
31967;DHT22;18496;52.042;6.812;2023-04-08T13:34:04;14.10;99.90